createdAt,value
2018-07-17T00:01:12.853Z,6.10
2018-07-17T00:03:41.083Z,5.93
2018-07-17T00:06:09.368Z,6.07
2018-07-17T00:08:37.619Z,6.33
2018-07-17T00:11:05.956Z,6.00
2018-07-17T00:13:34.191Z,6.10
2018-07-17T00:16:02.451Z,6.07
2018-07-17T00:18:30.668Z,6.13
2018-07-17T00:20:58.943Z,5.90
2018-07-17T00:23:27.163Z,5.77
2018-07-17T00:25:55.666Z,6.20
2018-07-17T00:28:23.892Z,6.23
2018-07-17T00:30:52.123Z,6.57
2018-07-17T00:33:20.439Z,6.67
2018-07-17T00:35:48.686Z,6.60
2018-07-17T00:38:16.919Z,6.80
2018-07-17T00:40:45.203Z,6.83
2018-07-17T00:43:13.446Z,8.33
2018-07-17T00:45:41.677Z,8.90
2018-07-17T00:48:09.811Z,7.73
2018-07-17T00:50:38.127Z,7.80
2018-07-17T00:53:06.171Z,7.83
2018-07-17T00:55:34.447Z,7.60
2018-07-17T00:58:02.649Z,7.63
2018-07-17T01:00:35.950Z,7.57
2018-07-17T01:03:09.416Z,7.07
2018-07-17T01:05:43.133Z,7.13
2018-07-17T01:08:16.520Z,7.47
2018-07-17T01:10:50.091Z,7.17
2018-07-17T01:13:27.920Z,7.30
2018-07-17T01:15:56.700Z,7.40
2018-07-17T01:18:24.964Z,6.70
2018-07-17T01:20:53.991Z,7.07
2018-07-17T01:23:22.005Z,7.80
2018-07-17T01:25:50.269Z,7.57
2018-07-17T01:28:18.509Z,7.03
2018-07-17T01:30:46.630Z,7.40
2018-07-17T01:33:14.875Z,7.33
2018-07-17T01:35:43.083Z,8.10
2018-07-17T01:38:11.328Z,7.47
2018-07-17T01:40:39.544Z,7.93
2018-07-17T01:43:07.924Z,8.20
2018-07-17T01:45:35.856Z,8.07
2018-07-17T01:48:04.093Z,7.47
2018-07-17T01:50:32.315Z,8.27
2018-07-17T01:53:00.549Z,8.53
2018-07-17T01:55:29.315Z,8.17
2018-07-17T01:57:57.553Z,7.67
2018-07-17T02:00:25.781Z,8.17
2018-07-17T02:02:54.023Z,7.90
2018-07-17T02:05:22.258Z,7.27
2018-07-17T02:07:50.541Z,7.73
2018-07-17T02:10:18.782Z,8.50
2018-07-17T02:12:47.044Z,7.43
2018-07-17T02:15:15.343Z,8.17
2018-07-17T02:17:43.562Z,7.53
2018-07-17T02:20:11.796Z,7.77
2018-07-17T02:22:45.582Z,7.67
2018-07-17T02:25:14.023Z,7.50
2018-07-17T02:27:42.243Z,7.73
2018-07-17T02:30:10.488Z,7.87
2018-07-17T02:32:38.731Z,8.27
2018-07-17T02:35:06.992Z,8.60
2018-07-17T02:37:35.228Z,9.47
2018-07-17T02:40:03.260Z,8.90
2018-07-17T02:42:31.472Z,8.13
2018-07-17T02:44:59.716Z,7.97
2018-07-17T02:47:27.971Z,8.03
2018-07-17T02:49:56.477Z,8.53
2018-07-17T02:52:24.709Z,8.10
2018-07-17T02:54:52.949Z,8.03
2018-07-17T02:57:21.217Z,8.87
2018-07-17T02:59:49.477Z,9.27
2018-07-17T03:02:17.720Z,8.20
2018-07-17T03:04:46.029Z,8.20
2018-07-17T03:07:14.274Z,9.80
2018-07-17T03:09:42.503Z,9.00
2018-07-17T03:12:10.747Z,9.13
2018-07-17T03:14:39.017Z,8.97
2018-07-17T03:17:07.397Z,9.23
2018-07-17T03:19:35.826Z,8.97
2018-07-17T03:22:04.040Z,8.37
2018-07-17T03:24:32.377Z,8.73
2018-07-17T03:27:00.615Z,8.70
2018-07-17T03:29:28.835Z,9.13
2018-07-17T03:31:57.064Z,8.97
2018-07-17T03:34:25.060Z,8.73
2018-07-17T03:36:53.308Z,8.77
2018-07-17T03:39:21.560Z,9.17
2018-07-17T03:41:49.811Z,9.20
2018-07-17T03:44:18.031Z,8.80
2018-07-17T03:46:46.516Z,8.70
2018-07-17T03:49:14.733Z,7.97
2018-07-17T03:51:42.968Z,8.10
2018-07-17T03:54:11.330Z,8.27
2018-07-17T03:56:39.556Z,8.40
2018-07-17T03:59:07.824Z,8.03
2018-07-17T04:01:36.056Z,7.37
2018-07-17T04:04:04.327Z,8.47
2018-07-17T04:06:32.619Z,7.97
2018-07-17T04:09:00.849Z,8.27
2018-07-17T04:11:29.075Z,8.33
2018-07-17T04:13:57.327Z,8.13
2018-07-17T04:16:25.558Z,7.97
2018-07-17T04:18:54.787Z,8.70
2018-07-17T04:21:23.044Z,8.37
2018-07-17T04:23:51.312Z,8.30
2018-07-17T04:26:19.545Z,8.77
2018-07-17T04:28:47.767Z,9.20
2018-07-17T04:31:15.963Z,9.33
2018-07-17T04:33:44.212Z,9.80
2018-07-17T04:36:12.741Z,9.00
2018-07-17T04:38:41.007Z,10.23
2018-07-17T04:41:09.253Z,9.60
2018-07-17T04:43:37.483Z,10.23
2018-07-17T04:46:06.110Z,9.97
2018-07-17T04:48:34.402Z,10.13
2018-07-17T04:51:02.626Z,9.90
2018-07-17T04:53:30.957Z,10.33
2018-07-17T04:55:59.279Z,10.17
2018-07-17T04:58:27.525Z,9.63
2018-07-17T05:00:55.786Z,10.30
2018-07-17T05:03:24.023Z,10.57
2018-07-17T05:05:52.487Z,10.17
2018-07-17T05:08:20.716Z,9.10
2018-07-17T05:10:48.750Z,9.87
2018-07-17T05:13:17.051Z,9.73
2018-07-17T05:15:45.308Z,9.40
2018-07-17T05:18:13.646Z,9.40
2018-07-17T05:20:41.929Z,9.60
2018-07-17T05:23:10.169Z,9.67
2018-07-17T05:25:38.530Z,9.90
2018-07-17T05:28:06.889Z,9.73
2018-07-17T05:30:35.145Z,10.23
2018-07-17T05:33:03.369Z,10.23
2018-07-17T05:35:31.739Z,10.57
2018-07-17T05:37:59.917Z,10.57
2018-07-17T05:40:28.144Z,10.70
2018-07-17T05:42:56.424Z,10.70
2018-07-17T05:45:25.808Z,10.50
2018-07-17T05:47:54.060Z,11.10
2018-07-17T05:50:22.304Z,10.27
2018-07-17T05:52:50.564Z,9.90
2018-07-17T05:55:18.794Z,10.53
2018-07-17T05:57:47.061Z,9.33
2018-07-17T06:00:15.332Z,9.93
2018-07-17T06:02:43.562Z,9.13
2018-07-17T06:05:11.801Z,10.20
2018-07-17T06:07:40.043Z,10.07
2018-07-17T06:10:08.314Z,9.43
2018-07-17T06:12:36.376Z,9.57
2018-07-17T06:15:04.768Z,9.00
2018-07-17T06:17:33.010Z,8.87
2018-07-17T06:20:01.253Z,8.87
2018-07-17T06:22:29.486Z,8.50
2018-07-17T06:24:57.720Z,8.50
2018-07-17T06:27:26.004Z,8.87
2018-07-17T06:29:54.293Z,9.23
2018-07-17T06:32:22.511Z,8.73
2018-07-17T06:34:50.742Z,8.43
2018-07-17T06:37:18.985Z,8.50
2018-07-17T06:39:47.231Z,8.33
2018-07-17T06:42:15.455Z,8.30
2018-07-17T06:44:43.750Z,8.90
2018-07-17T06:47:11.760Z,7.97
2018-07-17T06:49:40.005Z,8.27
2018-07-17T06:52:08.235Z,8.83
2018-07-17T06:54:36.459Z,7.73
2018-07-17T06:57:04.703Z,8.60
2018-07-17T06:59:32.936Z,7.67
2018-07-17T07:02:01.838Z,7.47
2018-07-17T07:04:30.105Z,7.90
2018-07-17T07:06:58.327Z,8.30
2018-07-17T07:09:26.572Z,7.60
2018-07-17T07:11:54.805Z,7.10
2018-07-17T07:14:23.071Z,6.13
2018-07-17T07:16:51.373Z,5.63
2018-07-17T07:19:19.591Z,5.47
2018-07-17T07:21:47.844Z,5.43
2018-07-17T07:24:16.073Z,5.33
2018-07-17T07:26:44.303Z,5.97
2018-07-17T07:29:12.523Z,5.80
2018-07-17T07:31:40.797Z,5.90
2018-07-17T07:34:09.040Z,6.30
2018-07-17T07:36:37.302Z,5.53
2018-07-17T07:39:07.676Z,5.90
2018-07-17T07:41:35.949Z,5.47
2018-07-17T07:44:04.513Z,5.97
2018-07-17T07:46:32.528Z,5.70
2018-07-17T07:49:00.745Z,5.73
2018-07-17T07:51:29.319Z,5.70
2018-07-17T07:53:57.556Z,5.13
2018-07-17T07:56:25.977Z,5.23
2018-07-17T07:58:54.340Z,5.00
2018-07-17T08:01:22.632Z,4.80
2018-07-17T08:03:50.941Z,5.17
2018-07-17T08:06:18.947Z,5.07
2018-07-17T08:08:47.546Z,4.65
2018-07-17T08:11:15.902Z,4.90
2018-07-17T08:13:44.184Z,4.42
2018-07-17T08:16:12.433Z,4.53
2018-07-17T08:18:40.756Z,4.17
2018-07-17T08:21:09.297Z,4.30
2018-07-17T08:23:37.590Z,4.00
2018-07-17T08:26:05.845Z,4.60
2018-07-17T08:28:34.165Z,4.15
2018-07-17T08:31:02.370Z,4.35
2018-07-17T08:33:30.596Z,4.25
2018-07-17T08:35:58.826Z,4.33
2018-07-17T08:38:27.076Z,4.37
2018-07-17T08:40:55.306Z,4.58
2018-07-17T08:43:23.705Z,4.33
2018-07-17T08:45:51.796Z,4.35
2018-07-17T08:48:19.852Z,4.60
2018-07-17T08:50:48.092Z,4.33
2018-07-17T08:53:16.341Z,4.00
2018-07-17T08:55:44.585Z,4.12
2018-07-17T08:58:12.845Z,3.70
2018-07-17T09:00:41.057Z,3.83
2018-07-17T09:03:09.295Z,3.80
2018-07-17T09:05:37.586Z,3.90
2018-07-17T09:08:05.703Z,3.98
2018-07-17T09:10:33.921Z,4.22
2018-07-17T09:13:02.217Z,3.90
2018-07-17T09:15:30.404Z,3.60
2018-07-17T09:17:58.652Z,3.40
2018-07-17T09:20:26.915Z,4.03
2018-07-17T09:22:55.222Z,3.62
2018-07-17T09:25:23.450Z,3.33
2018-07-17T09:27:51.682Z,3.77
2018-07-17T09:30:19.996Z,4.30
2018-07-17T09:32:48.473Z,3.85
2018-07-17T09:35:16.722Z,4.00
2018-07-17T09:37:44.928Z,4.20
2018-07-17T09:40:13.189Z,3.70
2018-07-17T09:42:41.429Z,4.12
2018-07-17T09:45:09.656Z,3.67
2018-07-17T09:47:37.888Z,3.50
2018-07-17T09:50:06.099Z,3.55
2018-07-17T09:52:34.349Z,3.67
2018-07-17T09:55:02.566Z,3.55
2018-07-17T09:57:30.803Z,3.60
2018-07-17T09:59:59.048Z,3.62
2018-07-17T10:02:27.568Z,3.90
2018-07-17T10:04:56.033Z,3.75
2018-07-17T10:07:24.260Z,4.00
2018-07-17T10:09:52.287Z,4.05
2018-07-17T10:12:20.514Z,3.92
2018-07-17T10:14:48.769Z,4.25
2018-07-17T10:17:16.976Z,4.33
2018-07-17T10:19:45.204Z,4.37
2018-07-17T10:22:13.429Z,4.08
2018-07-17T10:24:41.634Z,4.37
2018-07-17T10:27:09.865Z,4.80
2018-07-17T10:29:38.096Z,4.20
2018-07-17T10:32:06.675Z,4.50
2018-07-17T10:34:34.935Z,4.92
2018-07-17T10:37:03.163Z,4.70
2018-07-17T10:39:31.388Z,5.15
2018-07-17T10:41:59.665Z,4.78
2018-07-17T10:44:27.868Z,4.10
2018-07-17T10:46:56.100Z,3.87
2018-07-17T10:49:24.348Z,4.28
2018-07-17T10:51:52.593Z,3.83
2018-07-17T10:54:20.583Z,4.00
2018-07-17T10:56:48.800Z,3.80
2018-07-17T10:59:17.037Z,3.90
2018-07-17T11:01:45.267Z,4.20
2018-07-17T11:04:13.544Z,4.25
2018-07-17T11:06:41.834Z,4.33
2018-07-17T11:09:10.057Z,4.12
2018-07-17T11:11:38.317Z,4.00
2018-07-17T11:14:06.568Z,4.05
2018-07-17T11:16:34.805Z,4.22
2018-07-17T11:19:03.012Z,4.62
2018-07-17T11:21:31.256Z,3.75
2018-07-17T11:23:59.604Z,3.40
2018-07-17T11:26:27.820Z,3.20
2018-07-17T11:28:56.084Z,3.55
2018-07-17T11:31:24.359Z,3.27
2018-07-17T11:33:52.732Z,3.67
2018-07-17T11:36:20.956Z,3.80
2018-07-17T11:38:49.339Z,3.55
2018-07-17T11:41:17.479Z,3.70
2018-07-17T11:43:45.820Z,3.90
2018-07-17T11:46:14.040Z,3.55
2018-07-17T11:48:42.272Z,3.22
2018-07-17T11:51:10.480Z,3.60
2018-07-17T11:53:38.721Z,3.62
2018-07-17T11:56:07.193Z,3.83
2018-07-17T11:58:35.414Z,3.33
2018-07-17T12:01:03.636Z,3.58
2018-07-17T12:03:31.884Z,3.62
2018-07-17T12:06:00.204Z,4.20
2018-07-17T12:08:28.408Z,4.00
2018-07-17T12:10:56.628Z,4.20
2018-07-17T12:13:24.877Z,4.10
2018-07-17T12:15:53.163Z,4.10
2018-07-17T12:18:21.406Z,3.85
2018-07-17T12:20:49.639Z,4.30
2018-07-17T12:23:17.884Z,4.15
2018-07-17T12:25:46.094Z,4.55
2018-07-17T12:28:14.360Z,4.05
2018-07-17T12:30:43.028Z,4.08
2018-07-17T12:33:11.354Z,3.95
2018-07-17T12:35:39.591Z,3.80
2018-07-17T12:38:07.884Z,3.90
2018-07-17T12:40:36.140Z,3.90
2018-07-17T12:43:04.394Z,3.72
2018-07-17T12:45:32.869Z,3.90
2018-07-17T12:48:01.426Z,3.52
2018-07-17T12:50:29.476Z,3.42
2018-07-17T12:52:57.691Z,3.67
2018-07-17T12:55:25.947Z,3.50
2018-07-17T12:57:53.954Z,3.58
2018-07-17T13:00:22.213Z,3.25
2018-07-17T13:02:50.484Z,3.20
2018-07-17T13:05:18.753Z,3.70
2018-07-17T13:07:46.990Z,3.60
2018-07-17T13:10:15.250Z,3.50
2018-07-17T13:12:43.463Z,3.58
2018-07-17T13:15:11.734Z,3.52
2018-07-17T13:17:39.760Z,3.70
2018-07-17T13:20:07.980Z,3.90
2018-07-17T13:22:36.206Z,3.83
2018-07-17T13:25:04.872Z,3.67
2018-07-17T13:27:35.193Z,4.15
2018-07-17T13:30:04.661Z,3.58
2018-07-17T13:32:32.919Z,3.37
2018-07-17T13:35:01.136Z,3.27
2018-07-17T13:37:29.385Z,3.47
2018-07-17T13:39:57.642Z,3.30
2018-07-17T13:42:25.868Z,3.62
2018-07-17T13:44:54.126Z,3.50
2018-07-17T13:47:23.286Z,3.50
2018-07-17T13:49:51.504Z,3.40
2018-07-17T13:52:19.739Z,3.40
2018-07-17T13:54:47.947Z,3.40
2018-07-17T13:57:21.338Z,3.60
2018-07-17T13:59:49.783Z,3.92
2018-07-17T14:02:18.046Z,3.45
2018-07-17T14:04:46.264Z,3.60
2018-07-17T14:07:14.491Z,3.40
2018-07-17T14:09:42.727Z,3.00
2018-07-17T14:12:10.999Z,3.20
2018-07-17T14:14:39.245Z,3.15
2018-07-17T14:17:07.528Z,3.00
2018-07-17T14:19:35.764Z,2.98
2018-07-17T14:22:03.964Z,3.10
2018-07-17T14:24:32.203Z,3.10
2018-07-17T14:27:00.494Z,2.80
2018-07-17T14:29:28.793Z,3.10
2018-07-17T14:31:57.049Z,3.20
2018-07-17T14:34:25.315Z,3.30
2018-07-17T14:36:53.537Z,3.58
2018-07-17T14:39:21.773Z,3.10
2018-07-17T14:41:50.069Z,3.00
2018-07-17T14:44:18.434Z,3.22
2018-07-17T14:46:46.730Z,2.92
2018-07-17T14:49:15.052Z,3.20
2018-07-17T14:51:43.300Z,3.45
2018-07-17T14:54:11.571Z,3.00
2018-07-17T14:56:39.935Z,3.17
2018-07-17T14:59:08.189Z,3.30
2018-07-17T15:01:36.453Z,3.10
2018-07-17T15:04:04.696Z,3.10
2018-07-17T15:06:32.923Z,3.33
2018-07-17T15:09:01.140Z,3.85
2018-07-17T15:11:29.376Z,3.52
2018-07-17T15:13:57.604Z,3.75
2018-07-17T15:16:25.937Z,3.62
2018-07-17T15:18:53.957Z,3.30
2018-07-17T15:21:22.240Z,3.47
2018-07-17T15:23:50.418Z,5.08
2018-07-17T15:26:18.661Z,5.30
2018-07-17T15:28:46.934Z,5.33
2018-07-17T15:31:15.174Z,5.90
2018-07-17T15:33:43.418Z,5.65
2018-07-17T15:36:11.657Z,5.30
2018-07-17T15:38:39.657Z,5.70
2018-07-17T15:41:07.968Z,5.42
2018-07-17T15:43:36.253Z,5.65
2018-07-17T15:46:04.566Z,5.40
2018-07-17T15:48:32.764Z,5.70
2018-07-17T15:51:01.049Z,5.00
2018-07-17T15:53:29.396Z,5.12
2018-07-17T15:55:57.669Z,4.87
2018-07-17T15:58:25.889Z,4.90
2018-07-17T16:00:53.876Z,4.80
2018-07-17T16:03:22.095Z,4.75
2018-07-17T16:05:50.304Z,5.20
2018-07-17T16:08:18.556Z,5.10
2018-07-17T16:10:46.781Z,5.17
2018-07-17T16:13:15.145Z,5.10
2018-07-17T16:15:43.334Z,4.80
2018-07-17T16:18:11.567Z,4.97
2018-07-17T16:20:39.777Z,5.20
2018-07-17T16:23:08.021Z,4.97
2018-07-17T16:25:36.232Z,5.30
2018-07-17T16:28:04.896Z,5.80
2018-07-17T16:30:33.128Z,5.58
2018-07-17T16:33:01.394Z,4.72
2018-07-17T16:35:29.677Z,5.12
2018-07-17T16:37:57.932Z,5.47
2018-07-17T16:40:26.191Z,4.72
2018-07-17T16:42:54.430Z,5.40
2018-07-17T16:45:23.027Z,5.08
2018-07-17T16:47:51.289Z,5.60
2018-07-17T16:50:19.487Z,5.50
2018-07-17T16:52:47.761Z,5.67
2018-07-17T16:55:15.995Z,5.22
2018-07-17T16:57:44.252Z,5.28
2018-07-17T17:00:16.593Z,5.75
2018-07-17T17:02:44.818Z,5.58
2018-07-17T17:05:13.094Z,6.40
2018-07-17T17:07:41.306Z,7.37
2018-07-17T17:10:09.567Z,7.00
2018-07-17T17:12:37.855Z,6.73
2018-07-17T17:15:06.341Z,6.93
2018-07-17T17:17:34.639Z,7.30
2018-07-17T17:20:02.914Z,6.97
2018-07-17T17:22:31.160Z,7.13
2018-07-17T17:24:59.391Z,7.10
2018-07-17T17:27:27.632Z,7.20
2018-07-17T17:29:55.974Z,6.40
2018-07-17T17:32:24.237Z,6.60
2018-07-17T17:34:52.561Z,6.90
2018-07-17T17:37:22.349Z,6.53
2018-07-17T17:39:50.669Z,6.70
2018-07-17T17:42:18.935Z,5.97
2018-07-17T17:44:47.198Z,6.10
2018-07-17T17:47:15.448Z,5.60
2018-07-17T17:49:43.695Z,5.43
2018-07-17T17:52:11.949Z,4.93
2018-07-17T17:54:40.240Z,5.83
2018-07-17T17:57:08.528Z,5.27
2018-07-17T17:59:36.769Z,5.20
2018-07-17T18:02:05.006Z,5.27
2018-07-17T18:04:33.229Z,4.80
2018-07-17T18:07:01.505Z,4.60
2018-07-17T18:09:30.658Z,4.73
2018-07-17T18:11:58.954Z,5.47
2018-07-17T18:14:27.233Z,4.93
2018-07-17T18:16:55.494Z,5.23
2018-07-17T18:19:23.760Z,5.33
2018-07-17T18:21:52.011Z,5.13
2018-07-17T18:24:20.242Z,5.00
2018-07-17T18:26:48.540Z,5.23
2018-07-17T18:29:16.751Z,5.10
2018-07-17T18:31:45.026Z,4.87
2018-07-17T18:34:13.246Z,4.70
2018-07-17T18:36:41.455Z,4.97
2018-07-17T18:39:09.475Z,4.93
2018-07-17T18:41:37.994Z,5.23
2018-07-17T18:44:06.236Z,4.73
2018-07-17T18:46:34.750Z,4.90
2018-07-17T18:49:03.003Z,4.97
2018-07-17T18:51:31.224Z,4.93
2018-07-17T18:53:59.468Z,4.97
2018-07-17T18:56:27.686Z,5.20
2018-07-17T18:58:55.973Z,4.90
2018-07-17T19:01:24.496Z,5.10
2018-07-17T19:03:52.746Z,5.17
2018-07-17T19:06:21.025Z,4.97
2018-07-17T19:08:49.262Z,4.90
2018-07-17T19:11:17.559Z,5.30
2018-07-17T19:13:45.925Z,4.67
2018-07-17T19:16:14.126Z,5.13
2018-07-17T19:18:42.365Z,5.03
2018-07-17T19:21:10.608Z,5.13
2018-07-17T19:23:38.863Z,5.07
2018-07-17T19:26:07.340Z,5.17
2018-07-17T19:28:35.592Z,4.57
2018-07-17T19:31:03.833Z,5.57
2018-07-17T19:33:32.080Z,4.90
2018-07-17T19:36:00.344Z,4.90
2018-07-17T19:38:28.569Z,4.97
2018-07-17T19:40:56.869Z,4.83
2018-07-17T19:43:25.092Z,5.50
2018-07-17T19:45:53.348Z,5.20
2018-07-17T19:48:21.633Z,5.30
2018-07-17T19:50:49.650Z,5.63
2018-07-17T19:53:17.676Z,5.40
2018-07-17T19:55:45.952Z,5.53
2018-07-17T19:58:14.188Z,5.90
2018-07-17T20:00:42.427Z,5.67
2018-07-17T20:03:10.691Z,5.57
2018-07-17T20:05:38.944Z,5.93
2018-07-17T20:08:07.582Z,5.60
2018-07-17T20:10:35.788Z,5.60
2018-07-17T20:13:04.031Z,5.50
2018-07-17T20:15:32.482Z,5.60
2018-07-17T20:18:00.836Z,6.17
2018-07-17T20:20:29.061Z,5.60
2018-07-17T20:22:59.099Z,6.20
2018-07-17T20:25:27.342Z,5.97
2018-07-17T20:27:55.566Z,5.90
2018-07-17T20:30:23.786Z,6.20
2018-07-17T20:32:52.079Z,6.00
2018-07-17T20:35:20.320Z,6.63
2018-07-17T20:37:48.586Z,5.63
2018-07-17T20:40:16.812Z,5.67
2018-07-17T20:42:45.058Z,6.83
2018-07-17T20:45:13.297Z,9.40
2018-07-17T20:47:41.548Z,11.30
2018-07-17T20:50:09.793Z,8.03
2018-07-17T20:52:38.075Z,10.60
2018-07-17T20:55:06.274Z,10.47
2018-07-17T20:57:34.533Z,9.70
2018-07-17T21:00:02.773Z,9.17
2018-07-17T21:02:31.104Z,8.70
2018-07-17T21:04:59.459Z,8.47
2018-07-17T21:07:27.667Z,8.80
2018-07-17T21:09:55.898Z,8.83
2018-07-17T21:12:24.110Z,8.40
2018-07-17T21:14:52.512Z,7.60
2018-07-17T21:17:21.045Z,7.60
2018-07-17T21:19:49.306Z,7.97
2018-07-17T21:22:17.584Z,7.50
2018-07-17T21:24:45.859Z,7.83
2018-07-17T21:27:14.096Z,7.43
2018-07-17T21:29:42.377Z,7.70
2018-07-17T21:32:10.601Z,7.50
2018-07-17T21:34:38.838Z,8.40
2018-07-17T21:37:07.082Z,7.57
2018-07-17T21:39:35.336Z,7.73
2018-07-17T21:42:03.572Z,7.70
2018-07-17T21:44:31.856Z,8.30
2018-07-17T21:47:00.088Z,7.20
2018-07-17T21:49:28.324Z,7.90
2018-07-17T21:51:56.549Z,7.53
2018-07-17T21:54:24.859Z,7.63
2018-07-17T21:56:53.089Z,8.13
2018-07-17T21:59:25.255Z,8.00
2018-07-17T22:01:54.205Z,7.47
2018-07-17T22:04:22.493Z,8.23
2018-07-17T22:06:50.749Z,7.73
2018-07-17T22:09:18.968Z,8.67
2018-07-17T22:11:47.609Z,8.37
2018-07-17T22:14:15.862Z,8.63
2018-07-17T22:16:44.108Z,8.57
2018-07-17T22:19:12.778Z,8.67
2018-07-17T22:21:41.035Z,8.33
2018-07-17T22:24:09.301Z,8.63
2018-07-17T22:26:37.552Z,8.57
2018-07-17T22:29:05.880Z,8.27
2018-07-17T22:31:34.201Z,7.93
2018-07-17T22:34:02.470Z,8.97
2018-07-17T22:36:30.711Z,8.47
2018-07-17T22:38:58.930Z,8.53
2018-07-17T22:41:27.220Z,8.03
2018-07-17T22:43:55.439Z,7.57
2018-07-17T22:46:23.701Z,7.10
2018-07-17T22:48:51.911Z,7.90
2018-07-17T22:51:20.152Z,7.23
2018-07-17T22:53:48.384Z,7.97
2018-07-17T22:56:16.653Z,7.37
2018-07-17T22:58:44.892Z,7.20
2018-07-17T23:01:13.133Z,7.87
2018-07-17T23:03:41.410Z,8.53
2018-07-17T23:06:09.665Z,8.33
2018-07-17T23:08:38.188Z,8.40
2018-07-17T23:11:06.449Z,8.03
2018-07-17T23:13:34.532Z,9.13
2018-07-17T23:16:03.112Z,8.37
2018-07-17T23:18:31.375Z,9.17
2018-07-17T23:20:59.628Z,9.13
2018-07-17T23:23:27.877Z,9.07
2018-07-17T23:25:56.123Z,9.53
2018-07-17T23:28:24.366Z,10.10
2018-07-17T23:30:52.631Z,9.90
2018-07-17T23:33:20.885Z,9.77
2018-07-17T23:35:49.119Z,9.57
2018-07-17T23:38:18.207Z,10.13
2018-07-17T23:40:46.453Z,9.63
2018-07-17T23:43:14.706Z,11.00
2018-07-17T23:45:43.265Z,10.80
2018-07-17T23:48:11.676Z,9.93
2018-07-17T23:50:39.958Z,10.77
2018-07-17T23:53:08.209Z,10.30
2018-07-17T23:55:36.444Z,10.50
2018-07-17T23:58:04.820Z,10.17
